Terminal Aerodrome Forecast
Issued by NWS Cleveland, OH

Home | Current Version | Previous Version | Graphics & Text | Print | Product List | Glossary On
Versions: 1 2 3 4 5 6 7 8 9 10 11 12 13 14 15
687
FTUS41 KCLE 240528
TAFCAK
TAF
KCAK 240528Z 2406/2506 15007KT P6SM OVC250
     FM240700 15007KT P6SM -SHRA OVC060
     FM240900 20012KT P6SM OVC080 WS020/23045KT
     FM241500 22015G25KT P6SM BKN060
     FM242100 23015G25KT P6SM OVC250
     FM250100 23012KT P6SM OVC025=

USA.gov is the U.S. government's official web portal to all federal, state and local government web resources and services.